Time;durP1;ratioP1;P1;durP2;ratioP2;P2;SDS_P1;SDS_P2;PMS_P1;PMS_P2;Temp;Humidity;BMP_temperature;BMP_pressure;BME280_temperature;BME280_humidity;BME280_pressure;Samples;Min_cycle;Max_cycle;Signal;HPM_P1;HPM_P2
2022/10/01 00:00:05;;;;;;;;;;;21.00;48.30;;;;;;5068458;28;19920;-63
2022/10/01 00:02:36;;;;;;;;;;;21.00;48.30;;;;;;5085342;28;19927;-63
2022/10/01 00:05:03;;;;;;;;;;;21.00;48.30;;;;;;5084986;28;19956;-63
2022/10/01 00:07:30;;;;;;;;;;;21.00;48.30;;;;;;5069416;28;20023;-63
2022/10/01 00:09:58;;;;;;;;;;;21.00;48.30;;;;;;5068307;28;19929;-63
2022/10/01 00:12:25;;;;;;;;;;;21.00;48.30;;;;;;5068571;28;19924;-63
2022/10/01 00:14:52;;;;;;;;;;;21.00;48.30;;;;;;5069657;28;19925;-62
2022/10/01 00:17:18;;;;;;;;;;;21.00;48.30;;;;;;5084948;28;19924;-62
2022/10/01 00:19:45;;;;;;;;;;;21.00;48.30;;;;;;5069404;28;19924;-62
2022/10/01 00:22:12;;;;;;;;;;;21.00;48.30;;;;;;5085211;28;19993;-62
2022/10/01 00:24:39;;;;;;;;;;;21.00;48.30;;;;;;5069278;28;20381;-63
2022/10/01 00:27:07;;;;;;;;;;;21.00;48.30;;;;;;5085203;28;19974;-63
2022/10/01 00:29:34;;;;;;;;;;;21.00;48.30;;;;;;5084760;28;19924;-63
2022/10/01 00:32:01;;;;;;;;;;;21.00;48.30;;;;;;5085169;28;20374;-63
2022/10/01 00:34:27;;;;;;;;;;;21.00;48.30;;;;;;5068267;28;19928;-63
2022/10/01 00:36:54;;;;;;;;;;;21.00;48.30;;;;;;5085013;28;19924;-63
2022/10/01 00:39:22;;;;;;;;;;;21.00;48.30;;;;;;5084588;28;19920;-63
2022/10/01 00:41:49;;;;;;;;;;;21.00;48.30;;;;;;5069507;28;19966;-63
2022/10/01 00:44:42;;;;;;;;;;;21.00;48.30;;;;;;5068578;28;19925;-63
2022/10/01 00:47:17;;;;;;;;;;;21.00;48.30;;;;;;5084952;28;19927;-63
2022/10/01 00:49:46;;;;;;;;;;;21.00;48.30;;;;;;5066998;28;19955;-63
2022/10/01 00:52:13;;;;;;;;;;;21.00;48.30;;;;;;5068475;28;20023;-63
2022/10/01 00:54:41;;;;;;;;;;;21.00;48.30;;;;;;5067946;28;19924;-62
2022/10/01 00:57:07;;;;;;;;;;;21.00;48.30;;;;;;5069001;28;19931;-63
2022/10/01 00:59:36;;;;;;;;;;;21.00;48.30;;;;;;5085324;28;20010;-63
2022/10/01 01:02:02;;;;;;;;;;;21.00;48.30;;;;;;5069278;28;19994;-63
2022/10/01 01:04:29;;;;;;;;;;;21.00;48.30;;;;;;5078810;28;19960;-63
2022/10/01 01:06:56;;;;;;;;;;;21.00;48.30;;;;;;5083754;28;20265;-62
2022/10/01 01:09:23;;;;;;;;;;;21.00;48.30;;;;;;5084472;28;19926;-63
2022/10/01 01:11:51;;;;;;;;;;;21.00;48.30;;;;;;5085326;28;19955;-63
2022/10/01 01:14:19;;;;;;;;;;;21.00;48.30;;;;;;5067267;28;20015;-63
2022/10/01 01:16:47;;;;;;;;;;;21.00;48.30;;;;;;5068976;28;19963;-63
2022/10/01 01:19:19;;;;;;;;;;;21.00;48.30;;;;;;5068687;28;19966;-63
2022/10/01 01:21:46;;;;;;;;;;;21.00;48.30;;;;;;5067844;28;19920;-63
2022/10/01 01:24:28;;;;;;;;;;;21.00;48.30;;;;;;5084602;28;20011;-63
2022/10/01 01:27:01;;;;;;;;;;;21.00;48.30;;;;;;5069321;28;19920;-63
2022/10/01 01:29:31;;;;;;;;;;;21.00;48.30;;;;;;5084323;28;20137;-63
2022/10/01 01:31:58;;;;;;;;;;;21.00;48.30;;;;;;5084283;28;19921;-63
2022/10/01 01:34:27;;;;;;;;;;;21.00;48.30;;;;;;5069195;28;20405;-63
2022/10/01 01:36:57;;;;;;;;;;;21.00;48.30;;;;;;5070470;28;20350;-63
2022/10/01 01:39:24;;;;;;;;;;;21.00;48.30;;;;;;5084564;28;19968;-63
2022/10/01 01:41:52;;;;;;;;;;;21.00;48.30;;;;;;5078118;28;19929;-63
2022/10/01 01:44:21;;;;;;;;;;;21.00;48.30;;;;;;5049651;28;19925;-63
2022/10/01 01:46:49;;;;;;;;;;;21.00;48.30;;;;;;5069578;28;19920;-63
2022/10/01 01:49:16;;;;;;;;;;;21.00;48.30;;;;;;5084410;28;19920;-63
2022/10/01 01:51:44;;;;;;;;;;;21.00;48.30;;;;;;5083537;28;19932;-63
2022/10/01 01:54:11;;;;;;;;;;;21.00;48.30;;;;;;5068511;28;19920;-63
2022/10/01 01:56:38;;;;;;;;;;;21.00;48.30;;;;;;5064846;28;20025;-63
2022/10/01 01:59:04;;;;;;;;;;;21.00;48.30;;;;;;5068377;28;19974;-63
2022/10/01 02:01:32;;;;;;;;;;;21.00;48.30;;;;;;5083435;28;19931;-62
2022/10/01 02:04:01;;;;;;;;;;;21.00;48.30;;;;;;5068487;28;19974;-63
2022/10/01 02:06:28;;;;;;;;;;;21.00;48.30;;;;;;5082956;28;19966;-63
2022/10/01 02:08:56;;;;;;;;;;;21.00;48.30;;;;;;5083372;28;20479;-62
2022/10/01 02:11:24;;;;;;;;;;;21.00;48.30;;;;;;5083013;28;19921;-63
2022/10/01 02:14:06;;;;;;;;;;;21.00;48.30;;;;;;5083750;28;19932;-63
2022/10/01 02:16:33;;;;;;;;;;;21.00;48.30;;;;;;5067521;28;20286;-62
2022/10/01 02:19:03;;;;;;;;;;;21.00;48.30;;;;;;5087513;28;19973;-63
2022/10/01 02:21:31;;;;;;;;;;;21.00;48.30;;;;;;5087615;28;19924;-63
2022/10/01 02:23:58;;;;;;;;;;;21.00;48.30;;;;;;5087379;28;19967;-63
2022/10/01 02:26:25;;;;;;;;;;;21.00;48.30;;;;;;5087235;28;20031;-63
2022/10/01 02:28:53;;;;;;;;;;;21.00;48.30;;;;;;5071657;28;19955;-63
2022/10/01 02:31:19;;;;;;;;;;;21.00;48.30;;;;;;5086762;28;19924;-63
2022/10/01 02:33:46;;;;;;;;;;;21.00;48.30;;;;;;5087084;28;20288;-63
2022/10/01 02:36:14;;;;;;;;;;;21.00;48.30;;;;;;5069939;28;19920;-63
2022/10/01 02:38:43;;;;;;;;;;;21.00;48.30;;;;;;5086629;28;19920;-63
2022/10/01 02:41:10;;;;;;;;;;;21.00;48.30;;;;;;5087063;28;19932;-63
2022/10/01 02:43:38;;;;;;;;;;;21.00;48.30;;;;;;5085355;28;19951;-62
2022/10/01 02:46:07;;;;;;;;;;;21.00;48.90;;;;;;5086212;28;19920;-63
2022/10/01 02:48:34;;;;;;;;;;;21.00;48.30;;;;;;5086404;28;19964;-63
2022/10/01 02:51:02;;;;;;;;;;;21.00;48.30;;;;;;5086254;28;19939;-63
2022/10/01 02:53:32;;;;;;;;;;;21.00;48.30;;;;;;5068408;28;19921;-63
2022/10/01 02:55:58;;;;;;;;;;;21.00;48.30;;;;;;5061443;28;20315;-63
2022/10/01 02:58:24;;;;;;;;;;;21.00;48.30;;;;;;5071034;28;19974;-63
2022/10/01 03:05:57;;;;;;;;;;;21.00;48.30;;;;;;5060386;22;19932;-81
2022/10/01 03:08:24;;;;;;;;;;;21.00;48.30;;;;;;5072046;28;19936;-80
2022/10/01 03:10:52;;;;;;;;;;;21.00;48.30;;;;;;5090202;28;20017;-81
2022/10/01 03:13:20;;;;;;;;;;;21.00;48.30;;;;;;5068374;28;19968;-81
2022/10/01 03:15:47;;;;;;;;;;;21.00;48.30;;;;;;5079756;28;19931;-84
2022/10/01 03:18:14;;;;;;;;;;;21.00;48.30;;;;;;5078865;28;19928;-82
2022/10/01 03:20:41;;;;;;;;;;;21.00;48.30;;;;;;5057627;28;19929;-80
2022/10/01 03:23:08;;;;;;;;;;;21.00;48.20;;;;;;5054131;28;19955;-82
2022/10/01 03:25:35;;;;;;;;;;;21.00;48.30;;;;;;5089638;28;20399;-81
2022/10/01 03:28:03;;;;;;;;;;;21.00;48.30;;;;;;5065508;28;20436;-80
2022/10/01 03:30:31;;;;;;;;;;;21.00;48.30;;;;;;5057509;28;19931;-81
2022/10/01 03:32:58;;;;;;;;;;;21.00;48.30;;;;;;5072662;28;20381;-82
2022/10/01 03:35:25;;;;;;;;;;;21.00;48.30;;;;;;5073359;28;19931;-84
2022/10/01 03:37:52;;;;;;;;;;;21.00;48.30;;;;;;5074120;28;19929;-81
2022/10/01 03:40:18;;;;;;;;;;;21.00;48.30;;;;;;5077458;28;19924;-81
2022/10/01 03:42:48;;;;;;;;;;;21.00;48.30;;;;;;5078228;28;19975;-81
2022/10/01 03:45:17;;;;;;;;;;;21.00;48.30;;;;;;5093841;28;20312;-81
2022/10/01 03:47:43;;;;;;;;;;;21.00;48.30;;;;;;5080857;28;19929;-83
2022/10/01 03:50:11;;;;;;;;;;;21.00;48.20;;;;;;5075185;28;20000;-81
2022/10/01 03:52:37;;;;;;;;;;;21.00;48.30;;;;;;5074444;28;20023;-81
2022/10/01 03:55:04;;;;;;;;;;;21.00;48.20;;;;;;5073091;28;19935;-81
2022/10/01 03:57:31;;;;;;;;;;;21.00;48.30;;;;;;5073006;28;20359;-80
2022/10/01 03:59:58;;;;;;;;;;;21.00;48.30;;;;;;5072773;28;19932;-81
2022/10/01 04:02:26;;;;;;;;;;;21.00;48.20;;;;;;5073461;28;19967;-83
2022/10/01 04:04:53;;;;;;;;;;;21.00;48.30;;;;;;5088668;28;19939;-83
2022/10/01 04:07:20;;;;;;;;;;;21.00;48.30;;;;;;5075341;28;19925;-80
2022/10/01 04:09:46;;;;;;;;;;;21.00;48.30;;;;;;5068106;28;19928;-80
2022/10/01 04:12:13;;;;;;;;;;;21.00;48.30;;;;;;5084435;28;19924;-82
2022/10/01 04:14:40;;;;;;;;;;;21.00;48.20;;;;;;5071390;28;19924;-82
2022/10/01 04:17:06;;;;;;;;;;;21.00;48.20;;;;;;5073227;28;20626;-82
2022/10/01 04:19:35;;;;;;;;;;;21.00;48.20;;;;;;5071996;28;19924;-82
2022/10/01 04:22:01;;;;;;;;;;;21.00;48.20;;;;;;5071605;28;20000;-81
2022/10/01 04:24:28;;;;;;;;;;;21.00;48.40;;;;;;5088914;28;19924;-83
2022/10/01 04:26:55;;;;;;;;;;;21.00;48.20;;;;;;5071794;28;19928;-81
2022/10/01 04:29:22;;;;;;;;;;;21.00;48.20;;;;;;5072567;28;19920;-83
2022/10/01 04:31:48;;;;;;;;;;;21.00;48.20;;;;;;5071959;28;19974;-80
2022/10/01 04:34:15;;;;;;;;;;;21.00;48.20;;;;;;5057210;28;19952;-80
2022/10/01 04:36:43;;;;;;;;;;;21.00;48.30;;;;;;5061635;28;19978;-81
2022/10/01 04:39:10;;;;;;;;;;;21.00;48.20;;;;;;5070520;28;20043;-84
2022/10/01 04:41:37;;;;;;;;;;;21.00;48.20;;;;;;5068652;28;19924;-82
2022/10/01 04:44:04;;;;;;;;;;;21.00;48.20;;;;;;5068499;28;19932;-81
2022/10/01 04:46:31;;;;;;;;;;;21.00;48.20;;;;;;5087881;28;19931;-81
2022/10/01 04:48:58;;;;;;;;;;;21.00;48.20;;;;;;5087667;28;19932;-80
2022/10/01 04:51:24;;;;;;;;;;;21.00;48.20;;;;;;5079496;28;20416;-84
2022/10/01 04:53:52;;;;;;;;;;;21.00;48.20;;;;;;5069822;28;19989;-81
2022/10/01 04:56:19;;;;;;;;;;;21.00;48.20;;;;;;5069984;28;19978;-82
2022/10/01 04:58:47;;;;;;;;;;;21.00;48.20;;;;;;5086949;28;19931;-80
2022/10/01 05:01:14;;;;;;;;;;;21.00;48.20;;;;;;5084096;28;19929;-81
2022/10/01 05:03:44;;;;;;;;;;;21.00;48.20;;;;;;5059637;28;19975;-81
2022/10/01 05:06:11;;;;;;;;;;;21.00;48.20;;;;;;5072154;28;19924;-81
2022/10/01 05:08:39;;;;;;;;;;;21.00;48.30;;;;;;5086259;28;20234;-80
2022/10/01 05:11:08;;;;;;;;;;;21.00;48.20;;;;;;5067523;28;19931;-84
2022/10/01 05:13:34;;;;;;;;;;;21.00;48.20;;;;;;5084380;28;19931;-80
2022/10/01 05:16:02;;;;;;;;;;;21.00;48.20;;;;;;5070399;28;20012;-81
2022/10/01 05:18:29;;;;;;;;;;;21.00;48.20;;;;;;5063174;28;19962;-83
2022/10/01 05:20:56;;;;;;;;;;;21.00;48.20;;;;;;5085288;28;19931;-81
2022/10/01 05:23:22;;;;;;;;;;;21.00;48.30;;;;;;5063695;28;19937;-81
2022/10/01 05:25:49;;;;;;;;;;;21.00;48.30;;;;;;5051178;28;19937;-83
2022/10/01 05:28:18;;;;;;;;;;;21.00;48.20;;;;;;5084934;28;19932;-81
2022/10/01 05:30:44;;;;;;;;;;;21.00;48.20;;;;;;5084436;28;19928;-81
2022/10/01 05:33:11;;;;;;;;;;;21.00;48.20;;;;;;5067195;28;19929;-82
2022/10/01 05:35:38;;;;;;;;;;;21.00;48.20;;;;;;5086757;28;20250;-80
2022/10/01 05:38:05;;;;;;;;;;;21.00;48.20;;;;;;5069265;28;19932;-80
2022/10/01 05:40:32;;;;;;;;;;;21.00;48.20;;;;;;5069037;28;19924;-80
2022/10/01 05:42:59;;;;;;;;;;;21.00;48.20;;;;;;5052233;28;19929;-80
2022/10/01 05:45:28;;;;;;;;;;;21.00;48.30;;;;;;5055436;28;20032;-80
2022/10/01 05:47:58;;;;;;;;;;;21.00;48.20;;;;;;5071282;28;20023;-81
2022/10/01 05:50:25;;;;;;;;;;;21.00;48.20;;;;;;5068930;28;19928;-81
2022/10/01 05:52:53;;;;;;;;;;;21.00;48.20;;;;;;5088763;28;19939;-85
2022/10/01 05:55:20;;;;;;;;;;;21.00;48.20;;;;;;5090464;28;19931;-81
2022/10/01 05:57:53;;;;;;;;;;;21.00;48.20;;;;;;5073949;28;19925;-81
2022/10/01 06:00:21;;;;;;;;;;;21.00;48.30;;;;;;5072436;28;20019;-80
2022/10/01 06:02:51;;;;;;;;;;;21.00;48.20;;;;;;5089931;28;19925;-81
2022/10/01 06:05:18;;;;;;;;;;;21.00;48.20;;;;;;5090155;28;19928;-83
2022/10/01 06:07:45;;;;;;;;;;;21.00;48.20;;;;;;5073625;28;20437;-80
2022/10/01 06:10:12;;;;;;;;;;;21.00;48.30;;;;;;5089856;28;19928;-81
2022/10/01 06:12:39;;;;;;;;;;;21.00;48.30;;;;;;5089804;28;19924;-83
2022/10/01 06:15:06;;;;;;;;;;;21.00;48.20;;;;;;5089942;28;19925;-81
2022/10/01 06:17:33;;;;;;;;;;;21.00;48.30;;;;;;5075152;28;19924;-81
2022/10/01 06:20:01;;;;;;;;;;;21.00;48.30;;;;;;5073459;28;19924;-80
2022/10/01 06:22:28;;;;;;;;;;;21.00;48.30;;;;;;5073177;28;19928;-82
2022/10/01 06:24:54;;;;;;;;;;;21.00;48.20;;;;;;5089292;28;19928;-81
2022/10/01 06:27:21;;;;;;;;;;;21.00;48.20;;;;;;5073097;28;19970;-83
2022/10/01 06:29:48;;;;;;;;;;;21.00;48.20;;;;;;5073597;28;19924;-81
2022/10/01 06:32:18;;;;;;;;;;;21.00;48.30;;;;;;5072471;28;19924;-81
2022/10/01 06:34:45;;;;;;;;;;;21.00;48.30;;;;;;5073101;28;20293;-80
2022/10/01 06:37:13;;;;;;;;;;;21.00;48.30;;;;;;5072739;28;19924;-82
2022/10/01 06:39:40;;;;;;;;;;;21.00;48.30;;;;;;5073129;28;19931;-81
2022/10/01 06:42:07;;;;;;;;;;;21.00;48.20;;;;;;5072718;28;20035;-81
2022/10/01 06:44:33;;;;;;;;;;;21.00;48.30;;;;;;5072317;28;20015;-84
2022/10/01 06:47:00;;;;;;;;;;;21.00;48.30;;;;;;5073087;28;19931;-81
2022/10/01 06:49:27;;;;;;;;;;;21.00;48.30;;;;;;5073494;28;19936;-83
2022/10/01 06:54:39;;;;;;;;;;;21.00;48.30;;;;;;5072182;28;20001;-81
2022/10/01 06:57:06;;;;;;;;;;;21.00;48.30;;;;;;5071913;28;19925;-83
2022/10/01 06:59:35;;;;;;;;;;;21.00;48.30;;;;;;5066829;28;20263;-83
2022/10/01 07:02:02;;;;;;;;;;;21.00;48.30;;;;;;5069503;28;20027;-82
2022/10/01 07:04:29;;;;;;;;;;;21.00;48.30;;;;;;5052483;28;19939;-81
2022/10/01 07:06:56;;;;;;;;;;;21.00;48.30;;;;;;5073119;28;20393;-82
2022/10/01 07:09:23;;;;;;;;;;;21.00;48.30;;;;;;5071767;28;19928;-82
2022/10/01 07:11:51;;;;;;;;;;;21.00;48.30;;;;;;5072349;28;19935;-82
2022/10/01 07:14:19;;;;;;;;;;;21.00;48.30;;;;;;5088654;28;19926;-83
2022/10/01 07:16:46;;;;;;;;;;;21.00;48.30;;;;;;5087982;28;19985;-81
2022/10/01 07:19:13;;;;;;;;;;;21.00;48.30;;;;;;5065453;28;19928;-84
2022/10/01 07:21:39;;;;;;;;;;;21.00;48.30;;;;;;5085452;28;19931;-80
2022/10/01 07:24:08;;;;;;;;;;;21.00;48.30;;;;;;5062513;28;19932;-81
2022/10/01 07:26:35;;;;;;;;;;;21.00;48.30;;;;;;5067137;28;19925;-81
2022/10/01 07:29:03;;;;;;;;;;;21.00;48.30;;;;;;5087362;28;19925;-82
2022/10/01 07:31:30;;;;;;;;;;;21.00;48.30;;;;;;5069125;28;19960;-82
2022/10/01 07:33:57;;;;;;;;;;;21.00;48.30;;;;;;5063603;28;19921;-80
2022/10/01 07:36:24;;;;;;;;;;;21.00;48.30;;;;;;5089066;28;20015;-81
2022/10/01 07:38:51;;;;;;;;;;;21.00;48.30;;;;;;5057556;28;19932;-82
2022/10/01 07:41:18;;;;;;;;;;;21.00;48.30;;;;;;5068568;28;20469;-80
2022/10/01 07:43:45;;;;;;;;;;;21.00;48.30;;;;;;5065388;28;19951;-80
2022/10/01 07:46:14;;;;;;;;;;;21.00;48.40;;;;;;5070556;28;19935;-81
2022/10/01 07:48:40;;;;;;;;;;;21.00;48.30;;;;;;5063987;28;19956;-81
2022/10/01 07:51:07;;;;;;;;;;;21.00;48.30;;;;;;5062456;28;19928;-85
2022/10/01 07:53:34;;;;;;;;;;;21.00;48.30;;;;;;5066693;28;20030;-81
2022/10/01 07:56:01;;;;;;;;;;;21.00;48.30;;;;;;5084989;28;19931;-80
2022/10/01 07:58:28;;;;;;;;;;;21.00;48.30;;;;;;5063090;28;19933;-82
2022/10/01 08:00:57;;;;;;;;;;;21.00;48.40;;;;;;5070428;28;19974;-81
2022/10/01 08:03:25;;;;;;;;;;;21.00;48.30;;;;;;5086339;28;19928;-82
2022/10/01 08:05:53;;;;;;;;;;;21.00;48.30;;;;;;5070002;28;20653;-80
2022/10/01 08:08:20;;;;;;;;;;;21.00;48.30;;;;;;5086623;28;19924;-83
2022/10/01 08:10:48;;;;;;;;;;;21.00;48.30;;;;;;5080177;28;19932;-81
2022/10/01 08:13:15;;;;;;;;;;;21.00;48.40;;;;;;5062665;28;19931;-80
2022/10/01 08:15:42;;;;;;;;;;;21.00;48.30;;;;;;5084610;28;19925;-80
2022/10/01 08:18:10;;;;;;;;;;;21.00;48.30;;;;;;5072222;28;20290;-81
2022/10/01 08:20:39;;;;;;;;;;;21.00;48.30;;;;;;5062239;28;20366;-80
2022/10/01 08:23:06;;;;;;;;;;;21.00;48.30;;;;;;5063255;28;19924;-81
2022/10/01 08:25:32;;;;;;;;;;;21.00;48.40;;;;;;5083552;28;19925;-82
2022/10/01 08:28:00;;;;;;;;;;;21.00;48.40;;;;;;5059042;28;19927;-82
2022/10/01 08:30:26;;;;;;;;;;;21.00;48.40;;;;;;5070871;28;19932;-83
2022/10/01 08:32:54;;;;;;;;;;;21.00;48.40;;;;;;5063576;28;19931;-82
2022/10/01 08:35:20;;;;;;;;;;;21.00;48.40;;;;;;5071004;28;19986;-81
2022/10/01 08:37:49;;;;;;;;;;;21.00;48.40;;;;;;5068790;28;19925;-81
2022/10/01 08:40:16;;;;;;;;;;;21.00;48.40;;;;;;5056567;28;19933;-81
2022/10/01 08:42:47;;;;;;;;;;;21.00;48.40;;;;;;5067594;28;19951;-80
2022/10/01 08:45:16;;;;;;;;;;;21.00;48.40;;;;;;5079642;28;19925;-80
2022/10/01 08:47:43;;;;;;;;;;;21.00;48.40;;;;;;5075938;28;19924;-80
2022/10/01 08:50:13;;;;;;;;;;;21.00;48.30;;;;;;5069648;28;20023;-80
2022/10/01 08:52:40;;;;;;;;;;;21.00;48.40;;;;;;5072943;28;20026;-80
2022/10/01 08:55:11;;;;;;;;;;;21.00;48.40;;;;;;5082287;28;19924;-83
2022/10/01 08:57:38;;;;;;;;;;;21.00;48.40;;;;;;5050653;28;19931;-83
2022/10/01 09:00:06;;;;;;;;;;;21.00;48.40;;;;;;5076451;28;19970;-79
2022/10/01 09:02:33;;;;;;;;;;;21.00;48.30;;;;;;5071142;28;20373;-79
2022/10/01 09:05:01;;;;;;;;;;;21.00;48.20;;;;;;5070392;28;19924;-82
2022/10/01 09:07:31;;;;;;;;;;;21.00;48.10;;;;;;5070725;28;19971;-80
2022/10/01 09:10:00;;;;;;;;;;;20.90;48.00;;;;;;5071403;28;20011;-83
2022/10/01 09:12:31;;;;;;;;;;;21.00;48.10;;;;;;5072380;28;19924;-80
2022/10/01 09:15:01;;;;;;;;;;;20.90;48.00;;;;;;5078182;28;19928;-84
2022/10/01 09:17:40;;;;;;;;;;;21.00;48.20;;;;;;5072521;28;19924;-81
2022/10/01 09:20:10;;;;;;;;;;;20.90;48.10;;;;;;5078720;28;19968;-80
2022/10/01 09:22:38;;;;;;;;;;;20.90;48.10;;;;;;5071411;28;19932;-80
2022/10/01 09:25:12;;;;;;;;;;;20.90;48.20;;;;;;5071559;28;19925;-81
2022/10/01 09:27:40;;;;;;;;;;;20.90;48.10;;;;;;5070032;28;19925;-80
2022/10/01 09:30:10;;;;;;;;;;;20.90;48.10;;;;;;5112197;22;19931;-65
2022/10/01 09:32:38;;;;;;;;;;;20.90;48.20;;;;;;5025203;28;19938;-64
2022/10/01 09:35:07;;;;;;;;;;;20.90;48.20;;;;;;5021524;28;19944;-64
2022/10/01 09:37:36;;;;;;;;;;;20.90;48.20;;;;;;5020398;28;20019;-64
2022/10/01 09:40:05;;;;;;;;;;;21.00;48.30;;;;;;5025872;28;20012;-64
2022/10/01 09:42:32;;;;;;;;;;;21.00;48.30;;;;;;5031519;28;19925;-64
2022/10/01 09:45:03;;;;;;;;;;;20.90;48.20;;;;;;5031258;28;19933;-65
2022/10/01 09:47:32;;;;;;;;;;;20.90;48.20;;;;;;5027441;28;19925;-65
2022/10/01 09:49:59;;;;;;;;;;;20.90;48.20;;;;;;5030783;28;19931;-65
2022/10/01 09:52:27;;;;;;;;;;;21.00;48.30;;;;;;5027048;28;20023;-65
2022/10/01 09:54:56;;;;;;;;;;;20.90;48.20;;;;;;5026132;28;19995;-65
2022/10/01 09:57:24;;;;;;;;;;;21.00;48.40;;;;;;5046684;28;19933;-65
2022/10/01 09:59:53;;;;;;;;;;;21.00;48.30;;;;;;5029573;28;19929;-64
2022/10/01 10:02:22;;;;;;;;;;;21.00;48.30;;;;;;5039375;28;19925;-65
2022/10/01 10:04:58;;;;;;;;;;;21.00;48.40;;;;;;5028549;28;19929;-64
2022/10/01 10:07:25;;;;;;;;;;;21.00;48.30;;;;;;5029498;28;19925;-65
2022/10/01 10:09:52;;;;;;;;;;;21.00;48.30;;;;;;5030020;28;19925;-64
2022/10/01 10:12:29;;;;;;;;;;;21.00;48.40;;;;;;5028970;28;19933;-64
2022/10/01 10:14:57;;;;;;;;;;;21.00;48.40;;;;;;5023816;28;19933;-65
2022/10/01 10:17:26;;;;;;;;;;;21.00;48.40;;;;;;5029485;28;19935;-65
2022/10/01 10:19:52;;;;;;;;;;;21.00;48.40;;;;;;5029479;28;19929;-65
2022/10/01 10:22:22;;;;;;;;;;;21.00;48.40;;;;;;5030267;28;20020;-64
2022/10/01 10:24:48;;;;;;;;;;;21.00;48.40;;;;;;5029991;28;19931;-65
2022/10/01 10:27:25;;;;;;;;;;;21.00;48.40;;;;;;5030504;28;19931;-65
2022/10/01 10:30:00;;;;;;;;;;;21.00;48.40;;;;;;5026361;28;19932;-65
2022/10/01 10:32:29;;;;;;;;;;;21.00;48.40;;;;;;5028937;28;19935;-65
2022/10/01 10:34:56;;;;;;;;;;;21.00;48.40;;;;;;5038342;28;19979;-66
2022/10/01 10:37:25;;;;;;;;;;;21.00;48.40;;;;;;5029822;28;20050;-65
2022/10/01 10:39:51;;;;;;;;;;;21.00;48.50;;;;;;5032735;28;19933;-65
2022/10/01 10:42:18;;;;;;;;;;;21.00;48.40;;;;;;5034055;28;20294;-65
2022/10/01 10:44:45;;;;;;;;;;;21.00;48.40;;;;;;5033298;28;19931;-65
2022/10/01 10:47:13;;;;;;;;;;;21.00;48.40;;;;;;5032763;28;19960;-65
2022/10/01 10:49:43;;;;;;;;;;;21.10;48.50;;;;;;5023811;28;19925;-65
2022/10/01 10:52:18;;;;;;;;;;;21.00;48.50;;;;;;5034101;28;20578;-65
2022/10/01 10:54:46;;;;;;;;;;;21.00;48.50;;;;;;5040060;28;20024;-65
2022/10/01 10:57:16;;;;;;;;;;;21.00;48.50;;;;;;5029308;28;20003;-65
2022/10/01 10:59:43;;;;;;;;;;;21.00;48.50;;;;;;5032011;28;20137;-65
2022/10/01 11:02:14;;;;;;;;;;;21.00;48.50;;;;;;5029696;28;19971;-65
2022/10/01 11:04:43;;;;;;;;;;;21.10;48.50;;;;;;5025597;28;19929;-65
2022/10/01 11:07:09;;;;;;;;;;;21.00;48.50;;;;;;5031660;28;19929;-65
2022/10/01 11:09:42;;;;;;;;;;;21.00;48.50;;;;;;5045786;28;19932;-65
2022/10/01 11:12:11;;;;;;;;;;;21.00;48.50;;;;;;5032098;28;19925;-65
2022/10/01 11:14:43;;;;;;;;;;;21.00;48.50;;;;;;5032336;28;20045;-65
2022/10/01 11:17:21;;;;;;;;;;;21.00;48.50;;;;;;5033269;28;20295;-65
2022/10/01 11:20:02;;;;;;;;;;;21.10;48.60;;;;;;5035571;28;20012;-64
2022/10/01 11:22:35;;;;;;;;;;;21.00;48.50;;;;;;5028740;28;20642;-65
2022/10/01 11:25:05;;;;;;;;;;;21.00;48.50;;;;;;5029982;28;19925;-65
2022/10/01 11:27:35;;;;;;;;;;;21.00;48.50;;;;;;5038720;28;19964;-65
2022/10/01 11:30:03;;;;;;;;;;;21.10;48.60;;;;;;5031141;28;19925;-65
2022/10/01 11:32:33;;;;;;;;;;;21.10;48.60;;;;;;5030403;28;20422;-65
2022/10/01 11:35:09;;;;;;;;;;;21.10;48.60;;;;;;5031602;28;19929;-65
2022/10/01 11:37:52;;;;;;;;;;;21.10;48.60;;;;;;5027635;28;19925;-65
2022/10/01 11:40:23;;;;;;;;;;;21.10;48.60;;;;;;5022575;28;20351;-65
2022/10/01 11:42:50;;;;;;;;;;;21.10;48.60;;;;;;5031184;28;19955;-65
2022/10/01 11:45:20;;;;;;;;;;;21.10;48.60;;;;;;5031988;28;19925;-64
2022/10/01 11:47:47;;;;;;;;;;;21.10;48.70;;;;;;5026973;28;19960;-65
2022/10/01 11:50:14;;;;;;;;;;;21.10;48.80;;;;;;5036190;28;19925;-65
2022/10/01 11:52:42;;;;;;;;;;;21.10;48.90;;;;;;5039898;28;19925;-65
2022/10/01 12:00:41;;;;;;;;;;;21.10;49.00;;;;;;5033858;28;19929;-65
2022/10/01 12:03:10;;;;;;;;;;;21.10;49.10;;;;;;5027800;28;19952;-65
2022/10/01 12:05:37;;;;;;;;;;;21.10;49.10;;;;;;5028113;28;20041;-64
2022/10/01 12:08:08;;;;;;;;;;;21.10;49.10;;;;;;5031441;28;19929;-62
2022/10/01 12:10:37;;;;;;;;;;;21.10;49.20;;;;;;5032328;28;20571;-64
2022/10/01 12:13:06;;;;;;;;;;;21.20;49.40;;;;;;5030656;28;19996;-64
2022/10/01 12:15:34;;;;;;;;;;;21.10;49.40;;;;;;5031099;28;20347;-64
2022/10/01 12:18:01;;;;;;;;;;;21.10;49.40;;;;;;5028524;28;19947;-64
2022/10/01 12:20:29;;;;;;;;;;;21.20;49.60;;;;;;5028509;28;20386;-65
2022/10/01 12:22:56;;;;;;;;;;;21.20;49.60;;;;;;5030977;28;20028;-64
2022/10/01 12:25:24;;;;;;;;;;;21.20;49.60;;;;;;5030333;28;19984;-65
2022/10/01 12:27:55;;;;;;;;;;;21.20;49.60;;;;;;5030151;28;20036;-65
2022/10/01 12:30:23;;;;;;;;;;;21.20;49.60;;;;;;5030164;28;20024;-64
2022/10/01 12:32:57;;;;;;;;;;;21.20;49.70;;;;;;5030614;28;19947;-64
2022/10/01 12:35:28;;;;;;;;;;;21.30;49.80;;;;;;5030577;28;19929;-65
2022/10/01 12:37:59;;;;;;;;;;;21.30;49.80;;;;;;5030549;28;19932;-65
2022/10/01 12:40:29;;;;;;;;;;;21.30;49.80;;;;;;5022438;28;19932;-65
2022/10/01 12:43:02;;;;;;;;;;;21.30;49.90;;;;;;5031072;28;19925;-64
2022/10/01 12:45:30;;;;;;;;;;;21.30;49.90;;;;;;5031144;28;20018;-65
2022/10/01 12:48:00;;;;;;;;;;;21.30;49.90;;;;;;5041779;28;20012;-64
2022/10/01 12:50:30;;;;;;;;;;;21.30;49.90;;;;;;5029949;28;19932;-64
2022/10/01 12:53:01;;;;;;;;;;;21.30;49.90;;;;;;5030635;28;19932;-65
2022/10/01 12:55:35;;;;;;;;;;;21.30;50.00;;;;;;5030339;28;19969;-64
2022/10/01 12:58:05;;;;;;;;;;;21.40;50.00;;;;;;5024130;28;20020;-64
2022/10/01 13:00:34;;;;;;;;;;;21.40;50.00;;;;;;5029426;28;19929;-65
2022/10/01 13:03:18;;;;;;;;;;;21.40;50.00;;;;;;5029717;28;20035;-65
2022/10/01 13:05:49;;;;;;;;;;;21.40;50.00;;;;;;5028252;28;20015;-65
2022/10/01 13:08:23;;;;;;;;;;;21.40;50.00;;;;;;5027824;28;20018;-65
2022/10/01 13:10:53;;;;;;;;;;;21.40;50.00;;;;;;5029049;28;20425;-64
2022/10/01 13:13:21;;;;;;;;;;;21.40;50.00;;;;;;5030069;28;19925;-64
2022/10/01 13:15:48;;;;;;;;;;;21.40;50.10;;;;;;5030266;28;19931;-64
2022/10/01 13:18:18;;;;;;;;;;;21.40;50.00;;;;;;5028843;28;19931;-64
2022/10/01 13:20:50;;;;;;;;;;;21.50;50.70;;;;;;5023831;28;19940;-63
2022/10/01 13:23:19;;;;;;;;;;;21.50;50.10;;;;;;5026299;28;19929;-64
2022/10/01 13:25:47;;;;;;;;;;;21.50;50.10;;;;;;5030400;28;19925;-65
2022/10/01 13:28:16;;;;;;;;;;;21.50;50.50;;;;;;5018785;28;19969;-64
2022/10/01 13:31:01;;;;;;;;;;;21.50;50.20;;;;;;5030291;28;19925;-65
2022/10/01 13:33:30;;;;;;;;;;;21.50;50.20;;;;;;5026526;28;19979;-64
2022/10/01 13:35:58;;;;;;;;;;;21.50;50.10;;;;;;5029797;28;19975;-65
2022/10/01 13:38:27;;;;;;;;;;;21.50;50.10;;;;;;5030242;28;20374;-64
2022/10/01 13:40:58;;;;;;;;;;;21.50;50.10;;;;;;5029842;28;20378;-64
2022/10/01 13:43:25;;;;;;;;;;;21.50;50.10;;;;;;5012609;28;19960;-65
2022/10/01 13:45:52;;;;;;;;;;;21.50;50.10;;;;;;5012126;28;19929;-65
2022/10/01 13:48:19;;;;;;;;;;;21.50;50.10;;;;;;5013469;28;19932;-65
2022/10/01 13:50:57;;;;;;;;;;;21.60;50.20;;;;;;5029982;28;19936;-65
2022/10/01 13:53:24;;;;;;;;;;;21.50;50.10;;;;;;5029930;28;20012;-65
2022/10/01 13:55:52;;;;;;;;;;;21.60;50.20;;;;;;5029426;28;20282;-64
2022/10/01 13:58:22;;;;;;;;;;;21.60;50.20;;;;;;5041855;28;19926;-65
2022/10/01 14:00:49;;;;;;;;;;;21.60;50.20;;;;;;5029136;28;19932;-65
2022/10/01 14:03:33;;;;;;;;;;;21.60;50.20;;;;;;5031264;28;19925;-65
2022/10/01 14:06:02;;;;;;;;;;;21.60;50.20;;;;;;5030843;28;20016;-65
2022/10/01 14:08:30;;;;;;;;;;;21.60;50.20;;;;;;5029774;28;19925;-65
2022/10/01 14:16:28;;;;;;;;;;;21.60;50.10;;;;;;5048170;28;19925;-65
2022/10/01 14:18:55;;;;;;;;;;;21.60;50.10;;;;;;5031173;28;19925;-65
2022/10/01 14:21:27;;;;;;;;;;;21.60;50.10;;;;;;5033894;28;20012;-64
2022/10/01 14:23:56;;;;;;;;;;;21.60;50.10;;;;;;5019785;28;19961;-65
2022/10/01 14:26:24;;;;;;;;;;;21.60;50.10;;;;;;5033650;28;19932;-65
2022/10/01 14:28:54;;;;;;;;;;;21.60;50.10;;;;;;5033179;28;19925;-65
2022/10/01 14:31:23;;;;;;;;;;;21.70;50.20;;;;;;5032772;28;19979;-65
2022/10/01 14:34:10;;;;;;;;;;;21.60;50.10;;;;;;5033146;28;19960;-65
2022/10/01 14:36:41;;;;;;;;;;;21.70;50.20;;;;;;5016632;28;20012;-65
2022/10/01 14:39:12;;;;;;;;;;;21.70;50.20;;;;;;5033365;28;19924;-64
2022/10/01 14:41:39;;;;;;;;;;;21.70;50.20;;;;;;5033188;28;20015;-64